ADDS METAR Data INFO
IDs: Format: Raw Decoded Include TAF

Data at: 0925 UTC 25 Nov 2017

KBEA 250915Z AUTO 00000KT 10SM CLR A2989 RMK AO2
KBEA 250855Z AUTO 00000KT 10SM CLR A2988 RMK AO2
KBEA 250835Z AUTO 17003KT 10SM CLR A2988 RMK AO2
KBEA 250815Z AUTO 17003KT 10SM CLR A2988 RMK AO2
KBEA 250755Z AUTO 00000KT 10SM CLR A2988 RMK AO2
KBEA 250735Z AUTO 17004KT 10SM CLR A2988 RMK AO2
KBEA 250715Z AUTO 00000KT 10SM CLR A2989 RMK AO2
KBEA 250655Z AUTO 00000KT 10SM CLR 12/12 A2989 RMK AO2 T01160116
KBEA 250635Z AUTO 19003KT 10SM CLR 12/12 A2989 RMK AO2 T01240124
KBEA 250615Z AUTO 18005KT 10SM CLR 12/10 A2990 RMK AO2 T01150102
KBEA 250555Z AUTO 18004KT 10SM CLR 12/10 A2990 RMK AO2 T01200104 10190 20120 402510076
KBEA 250535Z AUTO 18004KT 10SM CLR 13/11 A2990 RMK AO2 T01330109
KBEA 250515Z AUTO 00000KT 10SM CLR 13/11 A2991 RMK AO2 T01310110
KBEA 250455Z AUTO 00000KT 10SM CLR 13/13 A2991 RMK AO2 T01270126
KBEA 250435Z AUTO 16003KT 10SM CLR 13/11 A2990 RMK AO2 T01320110
KBEA 250415Z AUTO 16004KT 10SM CLR 14/11 A2991 RMK AO2 T01350113
KBEA 250355Z AUTO 00000KT 10SM CLR 13/11 A2991 RMK AO2 T01310112
KBEA 250335Z AUTO 00000KT 10SM CLR 13/11 A2991 RMK AO2 T01330111
KBEA 250315Z AUTO 15003KT 10SM CLR 14/11 A2990 RMK AO2 T01380112
KBEA 250255Z AUTO 00000KT 10SM CLR 14/11 A2991 RMK AO2 T01380111
KBEA 250235Z AUTO 14003KT 10SM CLR 14/11 A2990 RMK AO2 T01400110
KBEA 250215Z AUTO 14003KT 10SM CLR 14/11 A2990 RMK AO2 T01430107
KBEA 250155Z AUTO 14004KT 10SM CLR 15/11 A2990 RMK AO2 T01520109
KBEA 250135Z AUTO 14005KT 10SM CLR 16/11 A2990 RMK AO2 T01580106
KBEA 250115Z AUTO 14007KT 10SM CLR 17/10 A2990 RMK AO2 T01660102
KBEA 250055Z AUTO 14007KT 10SM CLR 17/09 A2990 RMK AO2 T01700090
KBEA 250035Z AUTO 14008KT 10SM CLR 18/08 A2990 RMK AO2 T01750077
KBEA 250015Z AUTO 14007KT 10SM CLR 18/08 A2989 RMK AO2 T01800076
KBEA 242355Z AUTO 14006KT 10SM CLR 19/08 A2990 RMK AO2 T01920075 10251 20192
KBEA 242335Z AUTO 14007KT 10SM CLR 21/06 A2990 RMK AO2 T02050064
KBEA 242315Z AUTO 17006KT 10SM CLR 22/04 A2989 RMK AO2 T02180039
KBEA 242255Z AUTO 16009KT 10SM CLR 23/03 A2988 RMK AO2 T02340032
KBEA 242235Z AUTO 17008KT 10SM CLR 24/03 A2989 RMK AO2 T02410030
KBEA 242215Z AUTO 19007KT 10SM CLR 25/02 A2990 RMK AO2 T02450024
KBEA 242155Z AUTO 18007KT 10SM CLR 25/03 A2990 RMK AO2 T02470027
KBEA 242135Z AUTO 18006KT 10SM CLR 25/03 A2991 RMK AO2 T02490029
KBEA 242115Z AUTO 18006KT 10SM CLR 25/03 A2991 RMK AO2 T02500031
KBEA 242055Z AUTO 19005KT 10SM CLR 25/03 A2992 RMK AO2 T02480032
KBEA 242035Z AUTO 20006KT 10SM CLR 25/03 A2993 RMK AO2 T02480031
KBEA 242015Z AUTO 18003KT 10SM CLR 25/03 A2993 RMK AO2 T02450034
KBEA 241955Z AUTO 20007KT 10SM CLR 25/04 A2993 RMK AO2 T02450036
KBEA 241935Z AUTO 19010KT 10SM CLR 24/04 A2995 RMK AO2 T02420038
KBEA 241915Z AUTO 18007KT 10SM CLR 24/04 A2996 RMK AO2 T02390037
KBEA 241855Z AUTO 23006KT 10SM CLR 24/04 A2998 RMK AO2 T02370037
KBEA 241835Z AUTO 16005KT 10SM CLR 23/03 A2999 RMK AO2 T02330030
KBEA 241815Z AUTO 17007KT 10SM CLR 23/04 A3000 RMK AO2 T02330042
KBEA 241755Z AUTO 17008KT 10SM CLR 23/04 A3001 RMK AO2 T02260038 10226 20082
KBEA 241735Z AUTO 18009KT 10SM CLR 23/04 A3002 RMK AO2 T02250043
KBEA 241715Z AUTO 18010KT 10SM CLR 22/05 A3002 RMK AO2 T02170047
KBEA 241655Z AUTO 21007KT 10SM CLR 21/07 A3003 RMK AO2 T02120068
KBEA 241635Z AUTO 19008KT 10SM CLR 20/08 A3004 RMK AO2 T02030080
KBEA 241615Z AUTO 21007KT 10SM CLR 20/09 A3005 RMK AO2 T01980085
KBEA 241555Z AUTO 19005KT 10SM CLR 19/10 A3006 RMK AO2 T01870101
KBEA 241535Z AUTO 20005KT 10SM CLR 18/10 A3006 RMK AO2 T01750102
KBEA 241515Z AUTO 21005KT 10SM CLR 16/10 A3005 RMK AO2 T01590095
KBEA 241455Z AUTO 21004KT 10SM CLR 15/09 A3005 RMK AO2 T01490091
KBEA 241435Z AUTO 24004KT 10SM CLR 13/08 A3005 RMK AO2 T01320084
KBEA 241415Z AUTO 24003KT 10SM CLR 12/08 A3004 RMK AO2 T01190081
KBEA 241355Z AUTO 19004KT 10SM CLR 10/07 A3004 RMK AO2 T01040071
KBEA 241335Z AUTO 25003KT 10SM CLR 10/06 A3003 RMK AO2 T00950063
KBEA 241315Z AUTO 00000KT 10SM CLR 08/06 A3003 RMK AO2 T00820055
KBEA 241255Z AUTO 00000KT 10SM CLR 09/06 A3003 RMK AO2 T00870058
KBEA 241235Z AUTO 00000KT 10SM CLR 09/06 A3003 RMK AO2 T00900056
KBEA 241215Z AUTO 25003KT 10SM CLR 10/06 A3002 RMK AO2 T00970060
KBEA 241155Z AUTO 25003KT 10SM CLR 10/06 A3002 RMK AO2 T00980060 10106 20076
KBEA 241135Z AUTO 26003KT 10SM CLR 08/05 A3002 RMK AO2 T00810050
KBEA 241115Z AUTO 27003KT 10SM CLR 08/05 A3002 RMK AO2 T00780048
KBEA 241055Z AUTO 25003KT 10SM CLR 09/05 A3001 RMK AO2 T00850053
KBEA 241035Z AUTO 26003KT 10SM CLR 09/06 A3002 RMK AO2 T00860055
KBEA 241015Z AUTO 24004KT 10SM CLR 09/05 A3002 RMK AO2 T00860053
KBEA 240955Z AUTO 25004KT 10SM CLR 09/06 A3003 RMK AO2 T00910055
KBEA 240935Z AUTO 25005KT 10SM CLR 09/05 A3003 RMK AO2 T00930054
KBEA 240915Z AUTO 25003KT 10SM CLR 09/05 A3004 RMK AO2 T00920053
KBEA 240855Z AUTO 25004KT 10SM CLR 09/05 A3004 RMK AO2 T00920053
KBEA 240835Z AUTO 25004KT 10SM CLR 10/06 A3004 RMK AO2 T00950055
KBEA 240815Z AUTO 26004KT 10SM CLR 10/06 A3005 RMK AO2 T00980061
KBEA 240755Z AUTO 00000KT 10SM CLR 08/05 A3006 RMK AO2 T00830049
KBEA 240735Z AUTO 24003KT 10SM CLR 10/05 A3006 RMK AO2 T00970052
KBEA 240715Z AUTO 21004KT 10SM CLR 11/05 A3006 RMK AO2 T01050051
KBEA 240655Z AUTO 22004KT 10SM CLR 10/05 A3007 RMK AO2 T01030051
KBEA 240635Z AUTO 24004KT 10SM CLR 11/05 A3007 RMK AO2 T01050052
KBEA 240615Z AUTO 24004KT 10SM CLR 10/05 A3007 RMK AO2 T01040051
KBEA 240555Z AUTO 23004KT 10SM CLR 11/05 A3008 RMK AO2 T01070053 10187 20091 402210035
KBEA 240535Z AUTO 22004KT 10SM CLR 11/05 A3008 RMK AO2 T01070047
KBEA 240515Z AUTO 20005KT 10SM CLR 11/04 A3008 RMK AO2 T01090038
KBEA 240455Z AUTO 19006KT 10SM CLR 11/04 A3009 RMK AO2 T01100036
KBEA 240435Z AUTO 18004KT 10SM CLR 11/04 A3009 RMK AO2 T01110035
KBEA 240415Z AUTO 16003KT 10SM CLR 11/03 A3009 RMK AO2 T01080031
KBEA 240355Z AUTO 17003KT 10SM CLR 11/03 A3009 RMK AO2 T01080027
KBEA 240335Z AUTO 13004KT 10SM CLR 11/02 A3010 RMK AO2 T01090021
KBEA 240315Z AUTO 10004KT 10SM CLR 10/01 A3010 RMK AO2 T01040013
KBEA 240255Z AUTO 08004KT 10SM CLR 10/01 A3010 RMK AO2 T00980014
KBEA 240235Z AUTO 09006KT 10SM CLR 10/02 A3011 RMK AO2 T00980015
KBEA 240215Z AUTO 09005KT 10SM CLR 09/02 A3010 RMK AO2 T00920021
KBEA 240155Z AUTO 11003KT 10SM CLR 12/01 A3010 RMK AO2 T01160012
KBEA 240135Z AUTO 10004KT 10SM CLR 11/02 A3010 RMK AO2 T01060018
KBEA 240115Z AUTO 00000KT 10SM CLR 16/M03 A3009 RMK AO2 T01611032
KBEA 240055Z AUTO 00000KT 10SM CLR 14/M01 A3008 RMK AO2 T01431013
KBEA 240035Z AUTO 00000KT 10SM CLR 16/M01 A3008 RMK AO2 T01631011
KBEA 240015Z AUTO 00000KT 10SM CLR 19/M03 A3008 RMK AO2 T01851031
KBEA 232355Z AUTO 00000KT 10SM CLR 18/M02 A3008 RMK AO2 T01841023 10221 20179
KBEA 232335Z AUTO 00000KT 10SM CLR 18/00 A3007 RMK AO2 T01810003
KBEA 232315Z AUTO 00000KT 10SM CLR 20/M02 A3007 RMK AO2 T02031020
KBEA 232255Z AUTO 00000KT 10SM CLR 21/M03 A3007 RMK AO2 T02111029
KBEA 232235Z AUTO 00000KT 10SM CLR 22/M04 A3007 RMK AO2 T02151040
KBEA 232215Z AUTO 34003KT 10SM CLR 22/M03 A3007 RMK AO2 T02171035
KBEA 232155Z AUTO 00000KT 10SM CLR 22/M04 A3008 RMK AO2 T02181041
KBEA 232135Z AUTO 34005KT 10SM CLR 22/M04 A3008 RMK AO2 T02211040